Terminal Aerodrome Forecast
Issued by NWS Grand Forks, ND

Current Version | Previous Version | Text Only | Print | Product List | Glossary On
Versions: 1 2 3 4 5 6 7 8 9 10 11 12 13 14 15 16 17 18 19
000
FTUS43 KFGF 301700
TAFFAR
TAF
KFAR 301738Z 3018/0118 13018G26KT P6SM SCT080
     FM302100 13020G28KT P6SM VCSH BKN060
      TEMPO 0100/0103 BKN030
     FM010600 15023G30KT P6SM VCSH BKN080=

USA.gov is the U.S. government's official web portal to all federal, state and local government web resources and services.